createdAt,value
2022-10-04T00:00:27.508Z,13.40
2022-10-04T00:02:55.949Z,12.73
2022-10-04T00:05:24.520Z,16.50
2022-10-04T00:07:53.658Z,12.23
2022-10-04T00:10:22.605Z,14.20
2022-10-04T00:12:51.055Z,14.13
2022-10-04T00:15:20.548Z,14.97
2022-10-04T00:18:01.147Z,18.60
2022-10-04T00:20:48.046Z,12.17
2022-10-04T00:23:29.700Z,15.57
2022-10-04T00:25:58.696Z,17.10
2022-10-04T00:28:31.081Z,12.40
2022-10-04T00:31:14.409Z,13.63
2022-10-04T00:33:44.249Z,18.57
2022-10-04T00:36:30.617Z,14.23
2022-10-04T00:39:06.128Z,13.30
2022-10-04T00:41:36.212Z,19.07
2022-10-04T00:44:04.519Z,12.30
2022-10-04T00:46:33.358Z,14.13
2022-10-04T00:49:03.111Z,17.30
2022-10-04T00:51:31.956Z,15.40
2022-10-04T00:54:01.961Z,14.73
2022-10-04T00:56:31.872Z,18.43
2022-10-04T00:59:19.055Z,17.70
2022-10-04T01:01:47.652Z,16.07
2022-10-04T01:04:23.219Z,15.37
2022-10-04T01:06:51.629Z,11.43
2022-10-04T01:09:20.000Z,18.00
2022-10-04T01:11:49.286Z,16.20
2022-10-04T01:14:21.098Z,16.17
2022-10-04T01:16:49.439Z,16.90
2022-10-04T01:19:35.389Z,14.07
2022-10-04T01:22:12.520Z,14.50
2022-10-04T01:24:42.294Z,15.87
2022-10-04T01:27:25.424Z,13.73
2022-10-04T01:29:53.798Z,16.33
2022-10-04T01:32:23.163Z,16.13
2022-10-04T01:34:51.460Z,15.27
2022-10-04T01:37:19.774Z,16.60
2022-10-04T01:39:49.861Z,17.27
2022-10-04T01:42:19.714Z,15.07
2022-10-04T01:44:48.983Z,17.10
2022-10-04T01:47:18.344Z,19.50
2022-10-04T01:49:46.660Z,15.27
2022-10-04T01:52:17.167Z,15.30
2022-10-04T01:54:45.882Z,15.37
2022-10-04T01:57:16.198Z,18.97
2022-10-04T01:59:46.162Z,15.17
2022-10-04T02:02:19.208Z,18.37
2022-10-04T02:04:48.273Z,17.43
2022-10-04T02:07:16.889Z,18.90
2022-10-04T02:09:46.238Z,17.53
2022-10-04T02:12:18.483Z,17.37
2022-10-04T02:14:52.756Z,16.73
2022-10-04T02:17:21.692Z,19.97
2022-10-04T02:19:50.363Z,16.03
2022-10-04T02:22:18.687Z,18.27
2022-10-04T02:24:48.314Z,16.57
2022-10-04T02:27:18.030Z,18.13
2022-10-04T02:29:46.409Z,16.47
2022-10-04T02:32:34.656Z,21.00
2022-10-04T02:35:03.974Z,21.30
2022-10-04T02:37:32.468Z,21.13
2022-10-04T02:40:01.720Z,20.50
2022-10-04T02:42:39.340Z,16.77
2022-10-04T02:45:08.417Z,16.90
2022-10-04T02:47:39.145Z,20.37
2022-10-04T02:50:07.742Z,19.20
2022-10-04T02:52:37.419Z,19.07
2022-10-04T02:55:06.548Z,20.77
2022-10-04T02:57:36.874Z,18.50
2022-10-04T03:00:09.373Z,19.90
2022-10-04T03:02:37.707Z,20.50
2022-10-04T03:05:07.034Z,19.47
2022-10-04T03:07:35.448Z,17.20
2022-10-04T03:10:03.875Z,19.23
2022-10-04T03:12:32.365Z,24.67
2022-10-04T03:15:02.150Z,18.53
2022-10-04T03:17:30.480Z,22.80
2022-10-04T03:19:58.887Z,18.03
2022-10-04T03:22:27.440Z,18.63
2022-10-04T03:24:56.112Z,19.03
2022-10-04T03:27:25.078Z,20.10
2022-10-04T03:29:58.234Z,15.80
2022-10-04T03:32:30.751Z,15.43
2022-10-04T03:34:59.777Z,22.70
2022-10-04T03:37:28.379Z,20.33
2022-10-04T03:39:57.081Z,16.47
2022-10-04T03:42:25.916Z,19.73
2022-10-04T03:44:54.925Z,20.50
2022-10-04T03:47:23.513Z,18.13
2022-10-04T03:49:54.821Z,20.23
2022-10-04T03:52:24.245Z,21.83
2022-10-04T03:54:53.321Z,19.60
2022-10-04T03:57:21.735Z,23.97
2022-10-04T03:59:50.138Z,23.63
2022-10-04T04:02:20.288Z,21.93
2022-10-04T04:04:50.752Z,23.63
2022-10-04T04:07:21.507Z,18.60
2022-10-04T04:09:50.968Z,21.53
2022-10-04T04:12:20.003Z,22.17
2022-10-04T04:14:48.877Z,21.63
2022-10-04T04:17:21.261Z,20.30
2022-10-04T04:19:49.634Z,20.50
2022-10-04T04:22:18.504Z,24.13
2022-10-04T04:24:49.728Z,22.53
2022-10-04T04:27:18.300Z,25.03
2022-10-04T04:29:47.691Z,21.03
2022-10-04T04:32:17.585Z,21.20
2022-10-04T04:34:51.130Z,22.73
2022-10-04T04:37:19.443Z,20.83
2022-10-04T04:39:54.640Z,18.67
2022-10-04T04:42:23.808Z,26.63
2022-10-04T04:44:52.512Z,25.37
2022-10-04T04:47:32.415Z,20.93
2022-10-04T04:50:00.784Z,20.13
2022-10-04T04:52:30.451Z,22.77
2022-10-04T04:55:00.119Z,24.73
2022-10-04T04:57:28.435Z,25.00
2022-10-04T04:59:57.666Z,22.10
2022-10-04T05:02:30.201Z,24.10
2022-10-04T05:05:17.591Z,20.10
2022-10-04T05:07:45.960Z,21.07
2022-10-04T05:10:28.078Z,19.67
2022-10-04T05:12:56.615Z,24.00
2022-10-04T05:15:25.348Z,22.43
2022-10-04T05:17:53.863Z,21.17
2022-10-04T05:20:22.249Z,21.30
2022-10-04T05:22:51.391Z,29.70
2022-10-04T05:25:27.605Z,26.97
2022-10-04T05:27:56.400Z,22.43
2022-10-04T05:30:31.042Z,27.30
2022-10-04T05:33:00.362Z,21.70
2022-10-04T05:35:29.025Z,27.70
2022-10-04T05:37:59.861Z,25.43
2022-10-04T05:40:31.599Z,28.03
2022-10-04T05:43:00.143Z,24.27
2022-10-04T05:45:29.005Z,27.07
2022-10-04T05:47:57.857Z,24.70
2022-10-04T05:50:29.365Z,26.03
2022-10-04T05:53:07.176Z,28.40
2022-10-04T05:55:38.065Z,24.53
2022-10-04T05:58:18.346Z,24.57
2022-10-04T06:00:51.993Z,27.43
2022-10-04T06:03:30.695Z,22.93
2022-10-04T06:06:02.711Z,29.37
2022-10-04T06:08:40.321Z,26.93
2022-10-04T06:11:29.810Z,25.60
2022-10-04T06:14:16.039Z,25.60
2022-10-04T06:16:48.249Z,27.33
2022-10-04T06:19:20.817Z,25.83
2022-10-04T06:21:58.358Z,27.93
2022-10-04T06:24:29.952Z,22.30
2022-10-04T06:26:58.672Z,24.47
2022-10-04T06:29:28.758Z,31.23
2022-10-04T06:32:15.534Z,25.47
2022-10-04T06:34:49.405Z,25.23
2022-10-04T06:37:21.407Z,29.13
2022-10-04T06:39:58.250Z,29.43
2022-10-04T06:42:37.089Z,31.30
2022-10-04T06:45:12.089Z,35.00
2022-10-04T06:47:47.661Z,33.83
2022-10-04T06:50:19.332Z,32.03
2022-10-04T06:52:55.168Z,32.43
2022-10-04T06:55:46.396Z,30.13
2022-10-04T06:58:19.293Z,32.97
2022-10-04T07:00:50.209Z,26.13
2022-10-04T07:03:18.999Z,28.13
2022-10-04T07:05:47.896Z,27.63
2022-10-04T07:08:31.302Z,27.77
2022-10-04T07:11:03.586Z,26.73
2022-10-04T07:13:40.332Z,26.43
2022-10-04T07:16:12.626Z,30.27
2022-10-04T07:18:44.631Z,28.47
2022-10-04T07:21:13.303Z,23.03
2022-10-04T07:23:46.253Z,28.27
2022-10-04T07:26:18.816Z,24.37
2022-10-04T07:29:05.135Z,26.47
2022-10-04T07:31:36.607Z,22.90
2022-10-04T07:34:05.694Z,26.83
2022-10-04T07:36:40.761Z,31.30
2022-10-04T07:39:09.489Z,24.63
2022-10-04T07:41:38.993Z,22.10
2022-10-04T07:44:08.466Z,24.47
2022-10-04T07:46:44.855Z,22.90
2022-10-04T07:49:14.992Z,25.17
2022-10-04T07:51:46.109Z,23.40
2022-10-04T07:54:15.137Z,21.67
2022-10-04T07:56:45.204Z,24.33
2022-10-04T07:59:18.509Z,27.17
2022-10-04T08:01:48.779Z,26.47
2022-10-04T08:04:21.067Z,26.47
2022-10-04T08:06:56.638Z,24.03
2022-10-04T08:09:40.069Z,22.50
2022-10-04T08:12:10.869Z,23.03
2022-10-04T08:14:42.109Z,24.70
2022-10-04T08:17:16.002Z,24.43
2022-10-04T08:19:47.461Z,25.63
2022-10-04T08:22:19.723Z,24.33
2022-10-04T08:24:53.484Z,24.90
2022-10-04T08:27:28.409Z,31.40
2022-10-04T08:29:59.600Z,26.43
2022-10-04T08:32:32.330Z,26.83
2022-10-04T08:35:05.279Z,25.97
2022-10-04T08:37:35.212Z,22.80
2022-10-04T08:40:13.010Z,24.10
2022-10-04T08:42:55.569Z,23.63
2022-10-04T08:45:34.740Z,22.97
2022-10-04T08:48:24.776Z,25.67
2022-10-04T08:51:10.842Z,24.20
2022-10-04T08:53:59.807Z,27.37
2022-10-04T08:56:33.579Z,23.37
2022-10-04T08:59:09.518Z,28.13
2022-10-04T09:01:53.352Z,21.47
2022-10-04T09:04:33.681Z,20.50
2022-10-04T09:07:05.214Z,19.83
2022-10-04T09:09:44.603Z,19.47
2022-10-04T09:12:35.176Z,23.50
2022-10-04T09:15:14.500Z,20.30
2022-10-04T09:17:46.974Z,21.47
2022-10-04T09:20:37.937Z,23.00
2022-10-04T09:23:10.253Z,21.70
2022-10-04T09:25:49.157Z,26.67
2022-10-04T09:28:36.256Z,26.20
2022-10-04T09:31:09.885Z,20.60
2022-10-04T09:33:43.017Z,22.27
2022-10-04T09:36:20.238Z,23.90
2022-10-04T09:39:28.863Z,24.67
2022-10-04T09:42:04.545Z,19.13
2022-10-04T09:45:06.224Z,20.80
2022-10-04T09:47:41.050Z,17.57
2022-10-04T09:50:24.284Z,22.67
2022-10-04T09:52:55.529Z,22.43
2022-10-04T09:55:30.549Z,20.10
2022-10-04T09:58:13.795Z,19.40
2022-10-04T10:00:44.371Z,20.40
2022-10-04T10:03:21.193Z,19.10
2022-10-04T10:06:07.834Z,20.97
2022-10-04T10:08:38.379Z,19.70
2022-10-04T10:11:27.361Z,17.93
2022-10-04T10:14:09.891Z,19.60
2022-10-04T10:16:44.012Z,19.10
2022-10-04T10:19:27.522Z,18.07
2022-10-04T10:21:58.167Z,19.17
2022-10-04T10:24:30.149Z,19.00
2022-10-04T10:27:15.384Z,18.37
2022-10-04T10:30:03.485Z,19.27
2022-10-04T10:32:49.912Z,18.40
2022-10-04T10:35:22.822Z,16.03
2022-10-04T10:37:54.413Z,12.93
2022-10-04T10:40:41.047Z,18.13
2022-10-04T10:43:23.787Z,15.43
2022-10-04T10:46:04.638Z,14.03
2022-10-04T10:48:51.013Z,14.10
2022-10-04T10:51:30.863Z,15.43
2022-10-04T10:54:13.630Z,19.63
2022-10-04T10:56:45.904Z,15.40
2022-10-04T10:59:29.462Z,14.33
2022-10-04T11:02:06.314Z,17.17
2022-10-04T11:04:40.902Z,16.50
2022-10-04T11:07:21.665Z,15.33
2022-10-04T11:09:56.039Z,16.37
2022-10-04T11:12:30.057Z,18.63
2022-10-04T11:15:07.631Z,19.17
2022-10-04T11:17:39.782Z,19.10
2022-10-04T11:20:32.830Z,19.63
2022-10-04T11:26:30.639Z,19.77
2022-10-04T11:29:00.421Z,17.67
2022-10-04T11:31:34.794Z,24.07
2022-10-04T11:34:17.650Z,22.20
2022-10-04T11:36:49.275Z,21.10
2022-10-04T11:39:22.551Z,20.43
2022-10-04T11:41:55.089Z,22.77
2022-10-04T11:44:44.345Z,17.50
2022-10-04T11:47:16.056Z,19.37
2022-10-04T11:49:57.026Z,18.47
2022-10-04T11:52:34.339Z,22.00
2022-10-04T11:55:09.331Z,19.73
2022-10-04T11:57:41.435Z,16.97
2022-10-04T12:00:14.303Z,18.50
2022-10-04T12:02:52.036Z,17.50
2022-10-04T12:05:51.025Z,20.10
2022-10-04T12:08:27.799Z,18.60
2022-10-04T12:11:05.756Z,18.70
2022-10-04T12:13:51.836Z,17.77
2022-10-04T12:16:27.670Z,17.53
2022-10-04T12:19:15.517Z,15.63
2022-10-04T12:21:50.364Z,14.27
2022-10-04T12:24:32.637Z,17.53
2022-10-04T12:27:06.286Z,17.70
2022-10-04T12:29:42.876Z,16.27
2022-10-04T12:32:16.658Z,15.67
2022-10-04T12:34:47.800Z,15.00
2022-10-04T12:37:19.159Z,18.73
2022-10-04T12:39:56.373Z,14.77
2022-10-04T12:42:30.409Z,13.73
2022-10-04T12:45:04.158Z,12.83
2022-10-04T12:47:48.221Z,13.10
2022-10-04T12:50:19.223Z,14.30
2022-10-04T12:52:48.794Z,13.00
2022-10-04T12:55:20.420Z,15.33
2022-10-04T12:57:49.821Z,13.17
2022-10-04T13:00:19.295Z,14.37
2022-10-04T13:03:03.145Z,15.03
2022-10-04T13:05:32.869Z,11.63
2022-10-04T13:08:04.512Z,10.83
2022-10-04T13:10:36.502Z,14.63
2022-10-04T13:13:11.654Z,11.50
2022-10-04T13:18:31.936Z,13.73
2022-10-04T13:21:01.981Z,11.80
2022-10-04T13:23:39.516Z,10.27
2022-10-04T13:26:10.829Z,17.97
2022-10-04T13:28:41.535Z,11.03
2022-10-04T13:31:10.886Z,10.57
2022-10-04T13:33:43.909Z,12.70
2022-10-04T13:36:13.784Z,10.90
2022-10-04T13:38:48.168Z,13.37
2022-10-04T13:41:20.677Z,12.03
2022-10-04T13:44:17.964Z,14.87
2022-10-04T13:46:48.620Z,11.50
2022-10-04T13:49:22.337Z,11.83
2022-10-04T13:52:18.137Z,15.57
2022-10-04T13:55:05.819Z,10.97
2022-10-04T13:57:39.187Z,10.83
2022-10-04T14:00:07.849Z,9.67
2022-10-04T14:02:55.035Z,11.30
2022-10-04T14:05:44.270Z,11.43
2022-10-04T14:08:25.742Z,10.03
2022-10-04T14:11:08.897Z,10.40
2022-10-04T14:13:53.473Z,14.47
2022-10-04T14:16:34.328Z,12.17
2022-10-04T14:19:21.825Z,10.80
2022-10-04T14:22:00.052Z,9.17
2022-10-04T14:24:49.905Z,10.80
2022-10-04T14:27:37.368Z,13.17
2022-10-04T14:30:17.451Z,11.67
2022-10-04T14:33:00.892Z,13.97
2022-10-04T14:35:29.562Z,15.10
2022-10-04T14:38:14.739Z,11.20
2022-10-04T14:40:57.962Z,11.17
2022-10-04T14:43:49.946Z,11.73
2022-10-04T14:46:22.671Z,11.20
2022-10-04T14:48:59.223Z,12.57
2022-10-04T14:51:32.185Z,9.80
2022-10-04T14:54:01.888Z,15.60
2022-10-04T14:56:59.525Z,13.00
2022-10-04T14:59:43.291Z,10.37
2022-10-04T15:02:26.523Z,12.40
2022-10-04T15:05:22.862Z,11.97
2022-10-04T15:07:51.539Z,14.53
2022-10-04T15:10:20.824Z,18.33
2022-10-04T15:13:10.740Z,13.60
2022-10-04T15:15:42.902Z,9.67
2022-10-04T15:18:23.663Z,12.17
2022-10-04T15:20:54.579Z,14.10
2022-10-04T15:23:29.696Z,10.43
2022-10-04T15:25:58.347Z,13.37
2022-10-04T15:28:30.415Z,11.97
2022-10-04T15:30:59.653Z,12.90
2022-10-04T15:33:30.168Z,13.40
2022-10-04T15:36:18.930Z,12.60
2022-10-04T15:38:50.831Z,10.33
2022-10-04T15:41:20.380Z,13.07
2022-10-04T15:44:07.386Z,14.90
2022-10-04T15:46:40.449Z,13.10
2022-10-04T15:49:16.712Z,12.63
2022-10-04T15:52:06.072Z,11.13
2022-10-04T15:54:52.351Z,11.37
2022-10-04T15:57:27.033Z,11.57
2022-10-04T15:59:55.616Z,11.50
2022-10-04T16:02:56.851Z,12.40
2022-10-04T16:05:26.324Z,12.40
2022-10-04T16:08:13.348Z,15.10
2022-10-04T16:11:05.506Z,12.27
2022-10-04T16:13:39.938Z,12.47
2022-10-04T16:16:27.803Z,12.23
2022-10-04T16:18:56.753Z,12.47
2022-10-04T16:21:27.822Z,14.00
2022-10-04T16:24:10.902Z,9.97
2022-10-04T16:26:57.935Z,11.97
2022-10-04T16:29:30.031Z,13.93
2022-10-04T16:31:58.842Z,13.23
2022-10-04T16:34:31.743Z,9.77
2022-10-04T16:37:00.612Z,12.00
2022-10-04T16:39:54.630Z,13.30
2022-10-04T16:42:24.793Z,10.63
2022-10-04T16:44:56.154Z,12.13
2022-10-04T16:47:24.988Z,9.33
2022-10-04T16:49:55.208Z,9.23
2022-10-04T16:52:41.722Z,13.30
2022-10-04T16:55:20.749Z,11.90
2022-10-04T16:58:03.970Z,11.73
2022-10-04T17:00:38.282Z,13.33
2022-10-04T17:03:15.794Z,11.63
2022-10-04T17:05:48.498Z,9.37
2022-10-04T17:08:24.274Z,12.10
2022-10-04T17:11:03.961Z,10.97
2022-10-04T17:13:33.865Z,9.37
2022-10-04T17:16:07.684Z,10.30
2022-10-04T17:18:39.211Z,10.57
2022-10-04T17:21:08.323Z,10.83
2022-10-04T17:23:53.717Z,9.27
2022-10-04T17:26:26.531Z,10.13
2022-10-04T17:28:57.363Z,9.57
2022-10-04T17:31:30.373Z,11.27
2022-10-04T17:34:02.686Z,9.93
2022-10-04T17:36:35.236Z,9.83
2022-10-04T17:39:05.009Z,14.03
2022-10-04T17:41:36.943Z,9.73
2022-10-04T17:44:14.739Z,13.43
2022-10-04T17:46:45.207Z,9.40
2022-10-04T17:49:33.227Z,9.63
2022-10-04T17:52:20.947Z,11.10
2022-10-04T17:55:08.138Z,13.77
2022-10-04T17:57:40.291Z,10.27
2022-10-04T18:00:11.048Z,9.50
2022-10-04T18:02:56.890Z,12.23
2022-10-04T18:05:25.816Z,10.30
2022-10-04T18:07:55.804Z,11.53
2022-10-04T18:10:27.526Z,8.73
2022-10-04T18:12:58.072Z,9.67
2022-10-04T18:15:26.991Z,10.17
2022-10-04T18:18:09.779Z,6.30
2022-10-04T18:20:38.785Z,12.30
2022-10-04T18:23:17.201Z,8.73
2022-10-04T18:25:55.677Z,7.87
2022-10-04T18:28:24.461Z,7.37
2022-10-04T18:30:53.918Z,8.10
2022-10-04T18:33:27.046Z,5.93
2022-10-04T18:35:57.424Z,6.20
2022-10-04T18:38:26.999Z,5.43
2022-10-04T18:40:56.500Z,5.30
2022-10-04T18:43:29.762Z,5.10
2022-10-04T18:46:02.330Z,4.53
2022-10-04T18:48:42.780Z,9.63
2022-10-04T18:51:23.018Z,4.07
2022-10-04T18:53:52.229Z,3.47
2022-10-04T18:56:20.574Z,5.37
2022-10-04T18:59:10.257Z,3.87
2022-10-04T19:01:58.594Z,5.63
2022-10-04T19:04:31.554Z,3.67
2022-10-04T19:07:01.229Z,2.80
2022-10-04T19:09:31.310Z,4.63
2022-10-04T19:12:00.935Z,9.70
2022-10-04T19:14:31.481Z,4.90
2022-10-04T19:17:01.560Z,5.63
2022-10-04T19:19:50.637Z,4.27
2022-10-04T19:22:23.791Z,5.60
2022-10-04T19:24:58.991Z,4.80
2022-10-04T19:27:27.848Z,5.27
2022-10-04T19:30:11.635Z,6.57
2022-10-04T19:32:43.997Z,3.33
2022-10-04T19:35:16.317Z,4.03
2022-10-04T19:37:47.614Z,7.53
2022-10-04T19:40:18.265Z,4.90
2022-10-04T19:42:49.306Z,3.93
2022-10-04T19:45:20.143Z,4.43
2022-10-04T19:47:51.868Z,4.33
2022-10-04T19:50:21.352Z,3.50
2022-10-04T19:52:53.390Z,2.33
2022-10-04T19:55:26.403Z,5.47
2022-10-04T19:57:55.674Z,2.60
2022-10-04T20:00:24.116Z,2.77
2022-10-04T20:02:52.470Z,4.77
2022-10-04T20:05:24.857Z,4.57
2022-10-04T20:07:57.560Z,2.50
2022-10-04T20:10:33.491Z,3.27
2022-10-04T20:13:23.601Z,3.83
2022-10-04T20:15:52.882Z,3.40
2022-10-04T20:18:40.081Z,3.47
2022-10-04T20:21:10.521Z,2.43
2022-10-04T20:23:56.600Z,1.93
2022-10-04T20:26:54.458Z,4.80
2022-10-04T20:29:41.874Z,4.30
2022-10-04T20:32:10.365Z,4.87
2022-10-04T20:34:49.228Z,3.37
2022-10-04T20:37:19.270Z,5.20
2022-10-04T20:40:05.487Z,2.90
2022-10-04T20:42:35.224Z,3.37
2022-10-04T20:45:04.392Z,2.43
2022-10-04T20:47:34.324Z,5.70
2022-10-04T20:50:02.774Z,2.73
2022-10-04T20:52:31.749Z,3.43
2022-10-04T20:55:01.512Z,4.33
2022-10-04T20:57:30.590Z,3.23
2022-10-04T21:00:00.476Z,4.87
2022-10-04T21:02:32.727Z,3.67
2022-10-04T21:05:13.192Z,5.07
2022-10-04T21:07:41.617Z,4.80
2022-10-04T21:10:11.563Z,3.97
2022-10-04T21:12:40.390Z,3.00
2022-10-04T21:15:19.562Z,4.33
2022-10-04T21:18:00.326Z,6.47
2022-10-04T21:20:44.004Z,2.47
2022-10-04T21:23:17.713Z,3.70
2022-10-04T21:25:46.023Z,3.13
2022-10-04T21:28:24.333Z,3.67
2022-10-04T21:30:54.452Z,3.40
2022-10-04T21:33:22.768Z,5.57
2022-10-04T21:35:52.470Z,5.20
2022-10-04T21:38:21.043Z,2.50
2022-10-04T21:40:49.461Z,4.77
2022-10-04T21:43:17.983Z,3.00
2022-10-04T21:45:46.307Z,2.50
2022-10-04T21:48:16.057Z,3.87
2022-10-04T21:50:44.594Z,5.43
2022-10-04T21:53:13.663Z,5.53
2022-10-04T21:55:42.072Z,3.87
2022-10-04T21:58:10.463Z,6.80
2022-10-04T22:00:38.936Z,3.63
2022-10-04T22:03:07.280Z,2.83
2022-10-04T22:05:37.277Z,2.83
2022-10-04T22:08:05.726Z,4.67
2022-10-04T22:10:34.044Z,3.27
2022-10-04T22:13:02.428Z,4.97
2022-10-04T22:15:30.863Z,5.57
2022-10-04T22:17:59.172Z,2.87
2022-10-04T22:20:28.422Z,3.30
2022-10-04T22:22:58.581Z,2.90
2022-10-04T22:25:27.469Z,2.80
2022-10-04T22:27:55.843Z,4.67
2022-10-04T22:30:25.269Z,4.13
2022-10-04T22:32:53.670Z,2.60
2022-10-04T22:35:22.131Z,2.73
2022-10-04T22:37:50.686Z,3.50
2022-10-04T22:40:21.109Z,3.43
2022-10-04T22:42:51.143Z,4.90
2022-10-04T22:45:23.395Z,2.33
2022-10-04T22:47:51.723Z,4.63
2022-10-04T22:50:28.730Z,2.50
2022-10-04T22:52:57.132Z,3.07
2022-10-04T22:55:26.821Z,5.03
2022-10-04T22:57:55.148Z,3.33
2022-10-04T23:00:23.503Z,4.73
2022-10-04T23:02:51.921Z,2.57
2022-10-04T23:05:21.262Z,1.80
2022-10-04T23:07:49.899Z,2.63
2022-10-04T23:10:19.782Z,3.43
2022-10-04T23:12:50.788Z,2.73
2022-10-04T23:15:19.521Z,2.40
2022-10-04T23:17:47.867Z,3.97
2022-10-04T23:20:16.835Z,2.43
2022-10-04T23:22:45.208Z,3.27
2022-10-04T23:25:14.576Z,5.57
2022-10-04T23:27:42.925Z,4.80
2022-10-04T23:30:14.079Z,3.13
2022-10-04T23:32:42.460Z,4.37
2022-10-04T23:35:14.795Z,4.03
2022-10-04T23:37:43.162Z,5.53
2022-10-04T23:40:11.769Z,4.70
2022-10-04T23:42:40.098Z,4.07
2022-10-04T23:45:13.721Z,3.97
2022-10-04T23:47:43.489Z,3.90
2022-10-04T23:50:19.552Z,5.03
2022-10-04T23:52:47.850Z,3.57
2022-10-04T23:55:16.473Z,4.33
2022-10-04T23:57:44.873Z,2.10
